CST,Max TemperatureF,Mean TemperatureF,Min TemperatureF,Max Dew PointF,MeanDew PointF,Min DewpointF,Max Humidity, Mean Humidity, Min Humidity, Max Sea Level PressureIn, Mean Sea Level PressureIn, Min Sea Level PressureIn, Max VisibilityMiles, Mean VisibilityMiles, Min VisibilityMiles, Max Wind SpeedMPH, Mean Wind SpeedMPH, Max Gust SpeedMPH,PrecipitationIn, CloudCover, Events, WindDirDegrees
2012-11-1,69,53,37,42,36,25,92,58,24,30.09,30.02,29.98,10,10,10,12,1,14,0.00,0,,320
2012-11-2,80,61,42,52,46,39,89,61,33,30.02,29.99,29.96,10,10,10,10,1,15,0.00,0,,338
2012-11-3,84,66,47,60,54,46,93,67,40,30.08,30.02,29.95,10,10,7,17,5,24,T,2,Thunderstorm,265
2012-11-4,64,52,39,55,42,35,85,62,39,30.16,30.11,30.04,10,10,10,14,7,17,0.00,0,,20
2012-11-5,59,48,36,46,39,34,93,69,44,30.13,30.06,29.99,10,10,9,13,3,16,0.12,6,Rain,25
2012-11-6,59,52,44,44,43,41,86,72,57,30.06,30.01,29.98,10,10,10,9,4,14,0.00,7,,3
2012-11-7,57,48,38,42,38,33,89,66,43,30.18,30.06,29.99,10,10,9,18,6,28,T,4,Rain,340
2012-11-8,61,47,32,41,36,31,96,68,40,30.30,30.22,30.18,10,10,9,6,1,9,0.00,0,,21
2012-11-9,70,52,34,42,39,33,92,62,31,30.30,30.22,30.16,10,10,9,13,4,15,0.00,0,,199
2012-11-10,73,57,41,52,45,38,89,67,44,30.30,30.22,30.16,10,10,10,16,7,22,0.00,0,,192
2012-11-11,74,64,54,55,51,46,77,62,46,30.21,30.14,30.06,10,10,10,29,15,37,0.01,3,Rain,189
2012-11-12,65,50,34,57,44,28,93,67,41,30.46,30.27,30.06,10,8,2,22,7,32,0.75,6,Rain,344
2012-11-13,54,41,28,30,27,24,92,62,32,30.52,30.44,30.38,10,10,9,17,7,22,0.00,0,Snow,35
2012-11-14,56,45,34,37,32,27,85,66,47,30.40,30.33,30.29,10,10,9,12,6,15,0.00,0,Snow,28
2012-11-15,60,46,32,38,34,30,89,64,39,30.35,30.30,30.26,10,10,10,13,5,16,0.00,0,,32
2012-11-16,62,47,31,34,31,29,89,59,29,30.39,30.34,30.30,10,10,10,14,8,16,0.00,0,,32
2012-11-17,65,49,32,36,33,28,85,57,28,30.45,30.39,30.35,10,10,10,10,4,12,0.00,0,,35
2012-11-18,65,49,33,37,34,30,89,60,30,30.42,30.36,30.30,10,10,10,9,2,13,0.00,0,,71
2012-11-19,66,51,35,42,39,32,92,66,40,30.34,30.27,30.20,10,10,10,7,1,16,0.00,0,,131
2012-11-20,72,58,43,47,44,41,89,63,37,30.22,30.15,30.09,10,10,10,8,1,17,0.00,3,,267
2012-11-21,69,55,41,49,45,39,96,70,44,30.24,30.19,30.12,10,9,4,14,4,17,0.00,0,,31
2012-11-22,72,54,35,48,40,35,96,63,29,30.26,30.19,30.14,10,9,5,10,3,13,0.00,0,,216
2012-11-23,63,53,42,53,39,26,86,56,25,30.28,30.21,30.15,10,10,10,21,6,23,T,3,Rain,358
2012-11-24,49,39,29,30,23,17,78,54,29,30.37,30.27,30.19,10,10,10,15,7,18,0.00,0,,22
2012-11-25,61,44,26,29,25,21,92,57,22,30.20,30.12,30.06,10,10,10,13,5,17,0.00,0,,205
2012-11-26,60,49,38,55,45,29,100,79,57,30.16,30.10,30.06,10,8,2,16,4,21,0.28,7,Rain,195
2012-11-27,55,43,30,54,39,28,93,79,65,30.38,30.26,30.11,10,8,3,22,11,26,0.00,5,,32
2012-11-28,53,39,25,35,27,24,100,66,32,30.50,30.42,30.37,10,7,2,10,4,13,0.00,0,,34
2012-11-29,61,43,25,33,28,24,92,59,25,30.43,30.35,30.28,10,10,10,9,2,12,0.00,0,,194
2012-11-30,63,48,33,45,38,31,100,74,48,30.34,30.28,30.22,10,8,0,10,3,14,0.00,0,Fog,203